createdAt,value
2022-09-15T00:01:40.963Z,13.63
2022-09-15T00:04:09.920Z,13.60
2022-09-15T00:06:38.633Z,13.57
2022-09-15T00:09:07.422Z,13.55
2022-09-15T00:11:38.200Z,13.58
2022-09-15T00:14:08.722Z,13.61
2022-09-15T00:16:37.658Z,13.61
2022-09-15T00:19:07.885Z,13.65
2022-09-15T00:21:41.969Z,13.57
2022-09-15T00:24:11.318Z,13.50
2022-09-15T00:26:40.852Z,13.48
2022-09-15T00:29:11.978Z,13.47
2022-09-15T00:31:40.519Z,13.51
2022-09-15T00:34:13.748Z,13.53
2022-09-15T00:36:42.450Z,13.55
2022-09-15T00:39:12.203Z,13.62
2022-09-15T00:41:41.601Z,13.73
2022-09-15T00:44:43.326Z,13.69
2022-09-15T00:47:19.973Z,13.74
2022-09-15T00:49:58.404Z,13.86
2022-09-15T00:52:32.941Z,13.88
2022-09-15T00:55:05.164Z,13.88
2022-09-15T00:57:36.561Z,13.96
2022-09-15T01:00:10.239Z,13.96
2022-09-15T01:02:39.743Z,13.92
2022-09-15T01:05:13.240Z,13.93
2022-09-15T01:07:44.599Z,13.90
2022-09-15T01:10:17.025Z,13.86
2022-09-15T01:12:46.269Z,13.79
2022-09-15T01:15:16.032Z,13.73
2022-09-15T01:17:57.044Z,13.58
2022-09-15T01:20:51.294Z,13.54
2022-09-15T01:23:58.780Z,13.59
2022-09-15T01:26:57.280Z,13.62
2022-09-15T01:29:50.223Z,13.62
2022-09-15T01:32:39.605Z,13.68
2022-09-15T01:35:15.292Z,13.67
2022-09-15T01:37:48.074Z,13.58
2022-09-15T01:40:17.679Z,13.64
2022-09-15T01:42:47.013Z,13.66
2022-09-15T01:45:20.802Z,13.67
2022-09-15T01:47:51.779Z,13.66
2022-09-15T01:50:23.073Z,13.67
2022-09-15T01:52:53.791Z,13.66
2022-09-15T01:55:24.772Z,13.65
2022-09-15T01:57:53.675Z,13.67
2022-09-15T02:00:24.130Z,13.66
2022-09-15T02:02:55.108Z,13.66
2022-09-15T02:05:26.452Z,13.61
2022-09-15T02:07:58.523Z,13.55
2022-09-15T02:11:11.787Z,13.58
2022-09-15T02:14:36.341Z,13.55
2022-09-15T02:17:50.678Z,13.55
2022-09-15T02:21:08.201Z,13.52
2022-09-15T02:24:20.375Z,13.51
2022-09-15T02:27:32.331Z,13.46
2022-09-15T02:30:42.446Z,13.44
2022-09-15T02:33:55.601Z,13.51
2022-09-15T02:37:04.993Z,13.48
2022-09-15T02:40:14.266Z,13.44
2022-09-15T02:43:23.543Z,13.50
2022-09-15T02:46:33.495Z,13.49
2022-09-15T02:49:43.902Z,13.53
2022-09-15T02:52:53.018Z,13.57
2022-09-15T02:56:02.365Z,13.54
2022-09-15T02:59:11.449Z,13.50
2022-09-15T03:02:21.285Z,13.36
2022-09-15T03:05:32.200Z,13.43
2022-09-15T03:08:41.680Z,13.42
2022-09-15T03:11:50.699Z,13.39
2022-09-15T03:14:59.799Z,13.46
2022-09-15T03:18:08.789Z,13.48
2022-09-15T03:21:19.853Z,13.44
2022-09-15T03:24:29.008Z,13.47
2022-09-15T03:27:38.644Z,13.47
2022-09-15T03:30:49.122Z,13.36
2022-09-15T03:33:58.293Z,13.33
2022-09-15T03:37:08.969Z,13.36
2022-09-15T03:40:18.219Z,13.33
2022-09-15T03:43:27.700Z,13.33
2022-09-15T03:46:36.710Z,13.32
2022-09-15T03:49:45.908Z,13.30
2022-09-15T03:52:58.839Z,13.19
2022-09-15T03:56:13.108Z,13.32
2022-09-15T03:59:22.378Z,13.28
2022-09-15T04:02:31.308Z,13.31
2022-09-15T04:05:42.079Z,13.23
2022-09-15T04:08:52.591Z,13.24
2022-09-15T04:12:01.448Z,13.26
2022-09-15T04:15:11.395Z,13.30
2022-09-15T04:18:20.359Z,13.27
2022-09-15T04:21:30.187Z,13.19
2022-09-15T04:24:40.653Z,13.19
2022-09-15T04:27:49.638Z,13.16
2022-09-15T04:31:05.035Z,13.10
2022-09-15T04:34:14.226Z,13.13
2022-09-15T04:37:23.610Z,13.09
2022-09-15T04:40:34.251Z,13.23
2022-09-15T04:43:43.421Z,13.29
2022-09-15T04:46:52.665Z,13.34
2022-09-15T04:50:01.824Z,13.36
2022-09-15T04:53:10.936Z,13.37
2022-09-15T04:56:23.669Z,13.39
2022-09-15T04:59:32.737Z,13.40
2022-09-15T05:02:42.029Z,13.38
2022-09-15T05:05:51.122Z,13.36
2022-09-15T05:09:00.585Z,13.39
2022-09-15T05:12:11.323Z,13.32
2022-09-15T05:15:20.401Z,13.29
2022-09-15T05:18:29.518Z,13.28
2022-09-15T05:21:38.673Z,13.31
2022-09-15T05:24:47.658Z,13.38
2022-09-15T05:27:58.069Z,13.43
2022-09-15T05:31:10.434Z,13.46
2022-09-15T05:34:19.799Z,13.45
2022-09-15T05:37:28.703Z,13.57
2022-09-15T05:40:37.841Z,13.45
2022-09-15T05:43:49.065Z,13.52
2022-09-15T05:46:58.269Z,13.61
2022-09-15T05:50:07.956Z,13.69
2022-09-15T05:53:16.931Z,13.67
2022-09-15T05:56:25.931Z,13.65
2022-09-15T05:59:38.839Z,13.58
2022-09-15T06:02:47.882Z,13.74
2022-09-15T06:06:00.397Z,13.95
2022-09-15T06:09:09.652Z,13.93
2022-09-15T06:12:19.364Z,14.02
2022-09-15T06:15:29.798Z,14.13
2022-09-15T06:18:39.699Z,14.32
2022-09-15T06:21:49.342Z,14.39
2022-09-15T06:24:58.427Z,14.48
2022-09-15T06:28:07.339Z,14.71
2022-09-15T06:31:19.391Z,15.11
2022-09-15T06:34:28.398Z,15.14
2022-09-15T06:37:37.582Z,15.10
2022-09-15T06:40:46.805Z,14.95
2022-09-15T06:43:56.061Z,15.01
2022-09-15T06:47:07.431Z,14.93
2022-09-15T06:50:16.728Z,15.15
2022-09-15T06:53:25.665Z,15.47
2022-09-15T06:56:38.055Z,15.51
2022-09-15T06:59:47.511Z,15.41
2022-09-15T07:02:58.021Z,15.67
2022-09-15T07:06:07.364Z,15.77
2022-09-15T07:09:17.116Z,16.26
2022-09-15T07:12:26.079Z,17.11
2022-09-15T07:15:35.484Z,18.50
2022-09-15T07:18:46.206Z,19.02
2022-09-15T07:21:55.149Z,19.24
2022-09-15T07:25:04.115Z,17.97
2022-09-15T07:28:13.538Z,17.37
2022-09-15T07:31:24.924Z,17.28
2022-09-15T07:34:35.483Z,17.36
2022-09-15T07:37:44.779Z,17.55
2022-09-15T07:40:54.078Z,17.05
2022-09-15T07:44:04.026Z,16.67
2022-09-15T07:47:13.128Z,16.51
2022-09-15T07:50:23.675Z,19.12
2022-09-15T07:53:32.937Z,22.69
2022-09-15T07:56:41.941Z,22.62
2022-09-15T07:59:51.175Z,21.46
2022-09-15T08:03:00.222Z,20.29
2022-09-15T08:06:11.320Z,20.04
2022-09-15T08:09:20.691Z,20.11
2022-09-15T08:12:30.814Z,19.87
2022-09-15T08:15:39.885Z,19.43
2022-09-15T08:18:49.041Z,19.31
2022-09-15T08:22:01.007Z,21.73
2022-09-15T08:25:11.000Z,26.20
2022-09-15T08:28:20.061Z,28.11
2022-09-15T08:31:29.412Z,29.36
2022-09-15T08:34:38.635Z,29.40
2022-09-15T08:37:49.048Z,28.80
2022-09-15T08:41:01.100Z,30.00
2022-09-15T08:44:21.475Z,29.77
2022-09-15T08:47:33.769Z,26.92
2022-09-15T08:50:45.988Z,26.29
2022-09-15T08:54:01.792Z,26.57
2022-09-15T08:57:13.252Z,25.91
2022-09-15T09:00:22.526Z,24.97
2022-09-15T09:03:49.958Z,26.26
2022-09-15T09:07:07.100Z,26.92
2022-09-15T09:10:21.232Z,27.73
2022-09-15T09:13:38.790Z,28.28
2022-09-15T09:17:00.280Z,27.41
2022-09-15T09:20:34.510Z,29.06
2022-09-15T09:23:48.622Z,28.07
2022-09-15T09:26:59.027Z,28.26
2022-09-15T09:30:15.310Z,30.90
2022-09-15T09:33:30.525Z,31.85
2022-09-15T09:36:39.525Z,30.07
2022-09-15T09:39:49.096Z,32.41
2022-09-15T09:42:59.361Z,32.88
2022-09-15T09:46:15.405Z,30.75
2022-09-15T09:49:25.750Z,30.68
2022-09-15T09:52:36.156Z,30.70
2022-09-15T09:55:46.012Z,29.95
2022-09-15T09:58:57.751Z,28.91
2022-09-15T10:02:16.006Z,29.01
2022-09-15T10:05:25.035Z,28.34
2022-09-15T10:08:34.517Z,25.73
2022-09-15T10:11:45.449Z,21.34
2022-09-15T10:14:57.310Z,19.79
2022-09-15T10:18:06.590Z,19.32
2022-09-15T10:21:16.417Z,22.64
2022-09-15T10:24:29.866Z,23.22
2022-09-15T10:27:38.861Z,21.50
2022-09-15T10:31:01.976Z,20.67
2022-09-15T10:34:28.915Z,19.73
2022-09-15T10:37:45.214Z,18.98
2022-09-15T10:40:57.843Z,18.99
2022-09-15T10:44:27.006Z,18.88
2022-09-15T10:47:43.542Z,18.95
2022-09-15T10:50:57.686Z,19.18
2022-09-15T10:54:18.332Z,19.02
2022-09-15T10:57:42.739Z,18.22
2022-09-15T11:00:58.354Z,18.05
2022-09-15T11:04:29.227Z,18.00
2022-09-15T11:07:44.683Z,17.96
2022-09-15T11:10:58.382Z,18.38
2022-09-15T11:14:21.264Z,18.44
2022-09-15T11:17:42.405Z,18.55
2022-09-15T11:21:17.733Z,18.67
2022-09-15T11:24:45.322Z,18.25
2022-09-15T11:27:56.657Z,18.48
2022-09-15T11:31:11.170Z,18.56
2022-09-15T11:34:22.981Z,18.32
2022-09-15T11:37:39.471Z,18.25
2022-09-15T11:40:53.396Z,18.50
2022-09-15T11:44:10.129Z,18.69
2022-09-15T11:47:26.048Z,18.81
2022-09-15T11:50:37.200Z,18.64
2022-09-15T11:53:51.503Z,18.20
2022-09-15T11:57:01.809Z,17.84
2022-09-15T12:00:14.852Z,17.79
2022-09-15T12:03:27.760Z,18.27
2022-09-15T12:06:45.754Z,18.49
2022-09-15T12:10:26.560Z,18.11
2022-09-15T12:13:36.030Z,18.12
2022-09-15T12:16:45.638Z,18.50
2022-09-15T12:20:00.349Z,18.48
2022-09-15T12:23:17.321Z,18.55
2022-09-15T12:26:29.017Z,18.43
2022-09-15T12:29:42.244Z,18.36
2022-09-15T12:32:57.656Z,18.23
2022-09-15T12:36:34.622Z,17.84
2022-09-15T12:39:44.373Z,17.73
2022-09-15T12:42:55.179Z,17.50
2022-09-15T12:46:05.730Z,17.62
2022-09-15T12:49:18.203Z,17.75
2022-09-15T12:52:30.803Z,17.82
2022-09-15T12:55:50.479Z,17.92
2022-09-15T12:59:06.677Z,17.78
2022-09-15T13:02:43.029Z,17.78
2022-09-15T13:06:15.086Z,17.92
2022-09-15T13:09:28.957Z,17.92
2022-09-15T13:12:39.961Z,17.79
2022-09-15T13:15:52.400Z,17.66
2022-09-15T13:19:08.952Z,17.59
2022-09-15T13:22:23.687Z,17.53
2022-09-15T13:25:33.884Z,17.77
2022-09-15T13:28:43.285Z,17.96
2022-09-15T13:31:59.736Z,17.84
2022-09-15T13:35:41.677Z,17.77
2022-09-15T13:38:59.780Z,17.66
2022-09-15T13:42:35.397Z,17.64
2022-09-15T13:45:57.425Z,17.52
2022-09-15T13:49:25.470Z,17.65
2022-09-15T13:52:53.350Z,17.99
2022-09-15T13:56:06.083Z,18.60
2022-09-15T13:59:18.675Z,18.78
2022-09-15T14:02:29.174Z,18.98
2022-09-15T14:05:40.760Z,19.63
2022-09-15T14:08:53.153Z,20.28
2022-09-15T14:12:04.547Z,19.83
2022-09-15T14:15:16.804Z,19.16
2022-09-15T14:18:26.012Z,18.51
2022-09-15T14:21:36.640Z,18.07
2022-09-15T14:24:45.439Z,17.77
2022-09-15T14:27:55.897Z,17.88
2022-09-15T14:31:04.809Z,18.16
2022-09-15T14:34:17.919Z,18.49
2022-09-15T14:37:31.715Z,18.34
2022-09-15T14:40:41.508Z,18.30
2022-09-15T14:43:50.902Z,18.47
2022-09-15T14:47:00.067Z,19.76
2022-09-15T14:50:10.268Z,21.71
2022-09-15T14:53:22.461Z,21.16
2022-09-15T14:56:35.430Z,21.48
2022-09-15T14:59:48.959Z,21.09
2022-09-15T15:03:18.294Z,21.60
2022-09-15T15:06:31.091Z,22.14
2022-09-15T15:09:45.091Z,21.61
2022-09-15T15:12:56.067Z,21.85
2022-09-15T15:16:08.283Z,22.64
2022-09-15T15:19:32.433Z,21.15
2022-09-15T15:22:42.789Z,20.49
2022-09-15T15:25:54.079Z,19.34
2022-09-15T15:29:05.825Z,19.18
2022-09-15T15:32:16.528Z,18.54
2022-09-15T15:35:25.881Z,18.20
2022-09-15T15:38:36.768Z,17.94
2022-09-15T15:44:59.547Z,17.28
2022-09-15T15:48:10.189Z,17.02
2022-09-15T15:51:20.799Z,16.96
2022-09-15T15:54:29.600Z,16.94
2022-09-15T15:57:40.198Z,16.88
2022-09-15T16:00:50.571Z,16.87
2022-09-15T16:03:59.641Z,16.88
2022-09-15T16:07:10.123Z,16.78
2022-09-15T16:10:19.653Z,16.68
2022-09-15T16:13:30.266Z,16.49
2022-09-15T16:16:39.122Z,16.39
2022-09-15T16:19:48.195Z,16.29
2022-09-15T16:22:57.086Z,16.22
2022-09-15T16:26:09.021Z,16.19
2022-09-15T16:29:19.485Z,16.13
2022-09-15T16:32:28.781Z,16.00
2022-09-15T16:35:40.597Z,15.81
2022-09-15T16:38:49.633Z,15.73
2022-09-15T16:45:20.916Z,15.51
2022-09-15T16:48:29.951Z,15.43
2022-09-15T16:51:39.184Z,15.38
2022-09-15T16:54:48.299Z,15.28
2022-09-15T16:57:57.403Z,15.16
2022-09-15T17:01:09.489Z,15.06
2022-09-15T17:04:19.325Z,14.99
2022-09-15T17:07:28.707Z,14.89
2022-09-15T17:10:38.286Z,14.80
2022-09-15T17:13:47.787Z,14.72
2022-09-15T17:16:58.296Z,14.63
2022-09-15T17:20:08.019Z,14.59
2022-09-15T17:23:23.757Z,14.52
2022-09-15T17:26:33.378Z,14.51
2022-09-15T17:29:42.653Z,14.56
2022-09-15T17:32:53.443Z,14.65
2022-09-15T17:36:03.187Z,14.66
2022-09-15T17:39:12.460Z,14.66
2022-09-15T17:42:21.644Z,14.63
2022-09-15T17:45:33.507Z,14.53
2022-09-15T17:48:44.016Z,14.48
2022-09-15T17:51:52.860Z,14.36
2022-09-15T17:55:02.378Z,14.26
2022-09-15T17:58:11.887Z,14.11
2022-09-15T18:01:20.882Z,14.09
2022-09-15T18:04:35.217Z,14.05
2022-09-15T18:07:45.937Z,13.94
2022-09-15T18:10:57.375Z,13.90
2022-09-15T18:14:07.077Z,13.86
2022-09-15T18:17:16.697Z,13.84
2022-09-15T18:20:29.374Z,13.82
2022-09-15T18:23:39.329Z,13.78
2022-09-15T18:26:48.402Z,13.86
2022-09-15T18:29:57.515Z,13.78
2022-09-15T18:33:06.691Z,13.63
2022-09-15T18:36:17.192Z,13.58
2022-09-15T18:39:26.092Z,13.54
2022-09-15T18:42:35.152Z,13.58
2022-09-15T18:45:44.710Z,13.59
2022-09-15T18:48:53.659Z,13.58
2022-09-15T18:52:05.264Z,13.68
2022-09-15T18:55:16.060Z,13.93
2022-09-15T18:58:24.966Z,14.04
2022-09-15T19:01:34.799Z,14.07
2022-09-15T19:04:44.373Z,14.04
2022-09-15T19:07:55.402Z,14.12
2022-09-15T19:11:04.998Z,14.19
2022-09-15T19:14:14.038Z,14.22
2022-09-15T19:17:23.165Z,14.21
2022-09-15T19:20:32.397Z,14.25
2022-09-15T19:23:42.843Z,14.22
2022-09-15T19:26:52.016Z,14.22
2022-09-15T19:30:01.472Z,14.26
2022-09-15T19:33:11.230Z,14.25
2022-09-15T19:36:28.825Z,14.25
2022-09-15T19:39:40.381Z,14.27
2022-09-15T19:42:51.289Z,14.26
2022-09-15T19:46:00.337Z,14.24
2022-09-15T19:49:09.479Z,14.23
2022-09-15T19:52:18.532Z,14.22
2022-09-15T19:55:29.043Z,14.24
2022-09-15T19:58:37.969Z,14.24
2022-09-15T20:01:46.928Z,14.23
2022-09-15T20:04:56.430Z,14.23
2022-09-15T20:08:06.976Z,14.24
2022-09-15T20:11:17.876Z,14.28
2022-09-15T20:14:27.111Z,14.24
2022-09-15T20:17:41.746Z,14.25
2022-09-15T20:20:51.246Z,14.22
2022-09-15T20:24:00.786Z,14.14
2022-09-15T20:27:11.988Z,14.05
2022-09-15T20:30:21.686Z,13.96
2022-09-15T20:33:31.132Z,13.88
2022-09-15T20:36:40.798Z,13.78
2022-09-15T20:39:51.363Z,13.68
2022-09-15T20:43:02.166Z,13.56
2022-09-15T20:46:13.519Z,13.49
2022-09-15T20:49:22.801Z,13.44
2022-09-15T20:52:36.021Z,13.25
2022-09-15T20:55:51.364Z,13.30
2022-09-15T20:59:02.230Z,13.23
2022-09-15T21:02:11.409Z,13.26
2022-09-15T21:05:20.577Z,13.08
2022-09-15T21:08:29.919Z,13.01
2022-09-15T21:11:39.484Z,12.88
2022-09-15T21:14:50.259Z,12.77
2022-09-15T21:17:59.470Z,12.68
2022-09-15T21:21:10.013Z,12.80
2022-09-15T21:24:18.805Z,12.68
2022-09-15T21:27:27.978Z,12.59
2022-09-15T21:30:39.084Z,12.57
2022-09-15T21:33:49.124Z,12.43
2022-09-15T21:36:58.256Z,12.36
2022-09-15T21:40:08.677Z,12.36
2022-09-15T21:43:18.569Z,12.30
2022-09-15T21:46:30.413Z,12.31
2022-09-15T21:49:39.562Z,12.21
2022-09-15T21:52:48.937Z,12.10
2022-09-15T21:56:01.415Z,11.98
2022-09-15T21:59:12.027Z,11.91
2022-09-15T22:02:24.664Z,11.77
2022-09-15T22:05:35.321Z,11.66
2022-09-15T22:08:45.505Z,11.64
2022-09-15T22:11:54.747Z,11.60
2022-09-15T22:15:03.887Z,11.56
2022-09-15T22:18:14.447Z,11.51
2022-09-15T22:21:24.775Z,11.45
2022-09-15T22:24:33.936Z,11.39
2022-09-15T22:27:43.171Z,11.32
2022-09-15T22:30:52.871Z,11.23
2022-09-15T22:34:03.944Z,11.15
2022-09-15T22:37:13.064Z,11.07
2022-09-15T22:40:22.389Z,11.01
2022-09-15T22:43:33.774Z,11.01
2022-09-15T22:46:42.977Z,10.97
2022-09-15T22:49:53.805Z,10.93
2022-09-15T22:53:03.109Z,10.87
2022-09-15T22:56:14.282Z,10.86
2022-09-15T22:59:23.768Z,10.81
2022-09-15T23:02:33.072Z,10.82
2022-09-15T23:05:43.508Z,10.82
2022-09-15T23:08:52.855Z,10.78
2022-09-15T23:12:02.047Z,10.78
2022-09-15T23:15:11.988Z,10.80
2022-09-15T23:18:22.665Z,10.75
2022-09-15T23:21:33.068Z,10.74
2022-09-15T23:24:42.180Z,10.70
2022-09-15T23:27:51.441Z,10.74
2022-09-15T23:31:00.855Z,10.76
2022-09-15T23:34:10.645Z,10.76
2022-09-15T23:37:21.175Z,10.75
2022-09-15T23:40:30.842Z,10.72
2022-09-15T23:43:40.408Z,10.69
2022-09-15T23:46:49.479Z,10.70
2022-09-15T23:50:00.419Z,10.66
2022-09-15T23:53:10.920Z,10.67
2022-09-15T23:56:19.917Z,10.65
2022-09-15T23:59:28.845Z,10.67
